sensor_id;sensor_type;location;lat;lon;timestamp;pressure;altitude;pressure_sealevel;temperature;humidity
68594;BME280;55563;52.416;13.548;2024-01-11T00:01:48;102748.91;;;-7.46;100.00
68594;BME280;55563;52.416;13.548;2024-01-11T00:03:53;102747.81;;;-7.42;100.00
68594;BME280;55563;52.416;13.548;2024-01-11T00:05:58;102738.59;;;-7.45;100.00
68594;BME280;55563;52.416;13.548;2024-01-11T00:07:59;102726.00;;;-7.48;100.00
68594;BME280;55563;52.416;13.548;2024-01-11T00:10:01;102720.91;;;-7.48;100.00
68594;BME280;55563;52.416;13.548;2024-01-11T00:12:05;102718.19;;;-7.45;100.00
68594;BME280;55563;52.416;13.548;2024-01-11T00:14:06;102729.75;;;-7.54;100.00
68594;BME280;55563;52.416;13.548;2024-01-11T00:16:08;102733.28;;;-7.56;100.00
68594;BME280;55563;52.416;13.548;2024-01-11T00:18:08;102732.66;;;-7.60;100.00
68594;BME280;55563;52.416;13.548;2024-01-11T00:20:10;102740.31;;;-7.60;100.00
68594;BME280;55563;52.416;13.548;2024-01-11T00:22:11;102737.84;;;-7.61;100.00
68594;BME280;55563;52.416;13.548;2024-01-11T00:24:13;102742.50;;;-7.68;100.00
68594;BME280;55563;52.416;13.548;2024-01-11T00:26:14;102739.94;;;-7.68;100.00
68594;BME280;55563;52.416;13.548;2024-01-11T00:28:15;102733.00;;;-7.66;100.00
68594;BME280;55563;52.416;13.548;2024-01-11T00:30:18;102730.19;;;-7.61;100.00
68594;BME280;55563;52.416;13.548;2024-01-11T00:32:19;102738.59;;;-7.59;100.00
68594;BME280;55563;52.416;13.548;2024-01-11T00:34:21;102724.44;;;-7.65;100.00
68594;BME280;55563;52.416;13.548;2024-01-11T00:36:22;102726.66;;;-7.59;100.00
68594;BME280;55563;52.416;13.548;2024-01-11T00:38:23;102714.72;;;-7.58;100.00
68594;BME280;55563;52.416;13.548;2024-01-11T00:40:24;102708.66;;;-7.57;100.00
68594;BME280;55563;52.416;13.548;2024-01-11T00:42:26;102701.19;;;-7.60;100.00
68594;BME280;55563;52.416;13.548;2024-01-11T00:44:27;102705.41;;;-7.59;100.00
68594;BME280;55563;52.416;13.548;2024-01-11T00:46:28;102706.31;;;-7.60;100.00
68594;BME280;55563;52.416;13.548;2024-01-11T00:48:29;102698.66;;;-7.60;100.00
68594;BME280;55563;52.416;13.548;2024-01-11T00:50:31;102704.09;;;-7.66;100.00
68594;BME280;55563;52.416;13.548;2024-01-11T00:52:32;102696.38;;;-7.65;100.00
68594;BME280;55563;52.416;13.548;2024-01-11T00:54:33;102686.22;;;-7.66;100.00
68594;BME280;55563;52.416;13.548;2024-01-11T00:56:35;102684.22;;;-7.61;100.00
68594;BME280;55563;52.416;13.548;2024-01-11T00:58:36;102686.78;;;-7.61;100.00
68594;BME280;55563;52.416;13.548;2024-01-11T01:00:38;102671.66;;;-7.64;100.00
68594;BME280;55563;52.416;13.548;2024-01-11T01:02:39;102671.47;;;-7.61;100.00
68594;BME280;55563;52.416;13.548;2024-01-11T01:04:41;102671.19;;;-7.57;100.00
68594;BME280;55563;52.416;13.548;2024-01-11T01:06:42;102672.94;;;-7.57;100.00
68594;BME280;55563;52.416;13.548;2024-01-11T01:08:43;102677.13;;;-7.56;100.00
68594;BME280;55563;52.416;13.548;2024-01-11T01:10:44;102683.41;;;-7.62;100.00
68594;BME280;55563;52.416;13.548;2024-01-11T01:12:45;102669.75;;;-7.61;100.00
68594;BME280;55563;52.416;13.548;2024-01-11T01:14:47;102683.94;;;-7.71;100.00
68594;BME280;55563;52.416;13.548;2024-01-11T01:16:48;102675.31;;;-7.68;100.00
68594;BME280;55563;52.416;13.548;2024-01-11T01:18:49;102656.63;;;-7.69;100.00
68594;BME280;55563;52.416;13.548;2024-01-11T01:20:50;102637.47;;;-7.62;100.00
68594;BME280;55563;52.416;13.548;2024-01-11T01:22:54;102651.78;;;-7.59;100.00
68594;BME280;55563;52.416;13.548;2024-01-11T01:25:01;102657.06;;;-7.62;100.00
68594;BME280;55563;52.416;13.548;2024-01-11T01:27:04;102649.41;;;-7.62;100.00
68594;BME280;55563;52.416;13.548;2024-01-11T01:29:09;102652.69;;;-7.60;100.00
68594;BME280;55563;52.416;13.548;2024-01-11T01:31:12;102661.09;;;-7.58;100.00
68594;BME280;55563;52.416;13.548;2024-01-11T01:33:13;102649.31;;;-7.61;100.00
68594;BME280;55563;52.416;13.548;2024-01-11T01:35:14;102660.44;;;-7.62;100.00
68594;BME280;55563;52.416;13.548;2024-01-11T01:37:15;102658.81;;;-7.63;100.00
68594;BME280;55563;52.416;13.548;2024-01-11T01:39:16;102653.97;;;-7.67;100.00
68594;BME280;55563;52.416;13.548;2024-01-11T01:41:18;102657.16;;;-7.64;100.00
68594;BME280;55563;52.416;13.548;2024-01-11T01:43:19;102670.22;;;-7.68;100.00
68594;BME280;55563;52.416;13.548;2024-01-11T01:45:22;102671.94;;;-7.69;100.00
68594;BME280;55563;52.416;13.548;2024-01-11T01:47:24;102687.41;;;-7.72;100.00
68594;BME280;55563;52.416;13.548;2024-01-11T01:49:26;102673.59;;;-7.68;100.00
68594;BME280;55563;52.416;13.548;2024-01-11T01:51:29;102653.97;;;-7.67;100.00
68594;BME280;55563;52.416;13.548;2024-01-11T01:53:32;102658.06;;;-7.65;100.00
68594;BME280;55563;52.416;13.548;2024-01-11T01:55:37;102652.06;;;-7.64;100.00
68594;BME280;55563;52.416;13.548;2024-01-11T01:57:39;102643.50;;;-7.63;100.00
68594;BME280;55563;52.416;13.548;2024-01-11T01:59:42;102647.69;;;-7.62;100.00
68594;BME280;55563;52.416;13.548;2024-01-11T02:01:44;102651.06;;;-7.61;100.00
68594;BME280;55563;52.416;13.548;2024-01-11T02:03:50;102663.25;;;-7.66;100.00
68594;BME280;55563;52.416;13.548;2024-01-11T02:05:52;102658.97;;;-7.66;100.00
68594;BME280;55563;52.416;13.548;2024-01-11T02:07:56;102681.31;;;-7.69;100.00
68594;BME280;55563;52.416;13.548;2024-01-11T02:10:01;102677.31;;;-7.73;100.00
68594;BME280;55563;52.416;13.548;2024-01-11T02:12:04;102689.88;;;-7.70;100.00
68594;BME280;55563;52.416;13.548;2024-01-11T02:14:09;102693.59;;;-7.76;100.00
68594;BME280;55563;52.416;13.548;2024-01-11T02:16:13;102683.94;;;-7.71;100.00
68594;BME280;55563;52.416;13.548;2024-01-11T02:18:15;102701.38;;;-7.77;100.00
68594;BME280;55563;52.416;13.548;2024-01-11T02:20:17;102707.47;;;-7.80;100.00
68594;BME280;55563;52.416;13.548;2024-01-11T02:23:03;102695.53;;;-7.79;100.00
68594;BME280;55563;52.416;13.548;2024-01-11T02:24:57;102699.38;;;-7.72;100.00
68594;BME280;55563;52.416;13.548;2024-01-11T02:27:04;102694.69;;;-7.80;100.00
68594;BME280;55563;52.416;13.548;2024-01-11T02:29:06;102703.81;;;-7.76;100.00
68594;BME280;55563;52.416;13.548;2024-01-11T02:31:43;102701.19;;;-7.74;100.00
68594;BME280;55563;52.416;13.548;2024-01-11T02:35:49;102699.38;;;-7.72;100.00
68594;BME280;55563;52.416;13.548;2024-01-11T02:43:10;102711.84;;;-7.82;100.00
68594;BME280;55563;52.416;13.548;2024-01-11T02:45:11;102718.69;;;-7.82;100.00
68594;BME280;55563;52.416;13.548;2024-01-11T02:47:12;102708.47;;;-7.82;100.00
68594;BME280;55563;52.416;13.548;2024-01-11T02:49:13;102699.66;;;-7.77;100.00
68594;BME280;55563;52.416;13.548;2024-01-11T02:51:14;102689.44;;;-7.77;100.00
68594;BME280;55563;52.416;13.548;2024-01-11T02:53:14;102685.69;;;-7.71;100.00
68594;BME280;55563;52.416;13.548;2024-01-11T02:55:15;102673.75;;;-7.71;100.00
68594;BME280;55563;52.416;13.548;2024-01-11T02:57:16;102666.91;;;-7.70;100.00
68594;BME280;55563;52.416;13.548;2024-01-11T02:59:16;102652.41;;;-7.70;100.00
68594;BME280;55563;52.416;13.548;2024-01-11T03:01:17;102640.22;;;-7.65;100.00
68594;BME280;55563;52.416;13.548;2024-01-11T03:03:18;102638.41;;;-7.63;100.00
68594;BME280;55563;52.416;13.548;2024-01-11T03:05:18;102658.28;;;-7.68;100.00
68594;BME280;55563;52.416;13.548;2024-01-11T03:07:19;102662.63;;;-7.70;100.00
68594;BME280;55563;52.416;13.548;2024-01-11T03:09:19;102655.06;;;-7.71;100.00
68594;BME280;55563;52.416;13.548;2024-01-11T03:11:20;102666.09;;;-7.71;100.00
68594;BME280;55563;52.416;13.548;2024-01-11T03:13:20;102669.53;;;-7.72;100.00
68594;BME280;55563;52.416;13.548;2024-01-11T03:15:21;102669.75;;;-7.61;100.00
68594;BME280;55563;52.416;13.548;2024-01-11T03:17:22;102674.66;;;-7.58;100.00
68594;BME280;55563;52.416;13.548;2024-01-11T03:19:22;102683.88;;;-7.55;100.00
68594;BME280;55563;52.416;13.548;2024-01-11T03:21:23;102681.97;;;-7.52;100.00
68594;BME280;55563;52.416;13.548;2024-01-11T03:23:23;102680.16;;;-7.50;100.00
68594;BME280;55563;52.416;13.548;2024-01-11T03:25:24;102684.25;;;-7.47;100.00
68594;BME280;55563;52.416;13.548;2024-01-11T03:27:25;102666.47;;;-7.48;100.00
68594;BME280;55563;52.416;13.548;2024-01-11T03:29:25;102665.38;;;-7.44;100.00
68594;BME280;55563;52.416;13.548;2024-01-11T03:31:26;102668.84;;;-7.45;100.00
68594;BME280;55563;52.416;13.548;2024-01-11T03:33:27;102666.22;;;-7.44;100.00
68594;BME280;55563;52.416;13.548;2024-01-11T03:35:27;102667.38;;;-7.50;100.00
68594;BME280;55563;52.416;13.548;2024-01-11T03:37:28;102662.81;;;-7.44;100.00
68594;BME280;55563;52.416;13.548;2024-01-11T03:39:28;102659.38;;;-7.43;100.00
68594;BME280;55563;52.416;13.548;2024-01-11T03:41:29;102658.00;;;-7.49;100.00
68594;BME280;55563;52.416;13.548;2024-01-11T03:43:30;102664.47;;;-7.43;100.00
68594;BME280;55563;52.416;13.548;2024-01-11T03:45:30;102650.88;;;-7.44;100.00
68594;BME280;55563;52.416;13.548;2024-01-11T03:47:31;102653.44;;;-7.44;100.00
68594;BME280;55563;52.416;13.548;2024-01-11T03:49:32;102645.84;;;-7.45;100.00
68594;BME280;55563;52.416;13.548;2024-01-11T03:51:32;102644.84;;;-7.43;100.00
68594;BME280;55563;52.416;13.548;2024-01-11T03:53:36;102627.72;;;-7.41;100.00
68594;BME280;55563;52.416;13.548;2024-01-11T03:55:37;102619.84;;;-7.38;100.00
68594;BME280;55563;52.416;13.548;2024-01-11T03:57:38;102619.16;;;-7.40;100.00
68594;BME280;55563;52.416;13.548;2024-01-11T03:59:40;102620.69;;;-7.37;100.00
68594;BME280;55563;52.416;13.548;2024-01-11T04:01:41;102633.63;;;-7.40;100.00
68594;BME280;55563;52.416;13.548;2024-01-11T04:03:41;102628.78;;;-7.31;100.00
68594;BME280;55563;52.416;13.548;2024-01-11T04:05:42;102633.34;;;-7.36;100.00
68594;BME280;55563;52.416;13.548;2024-01-11T04:07:43;102642.66;;;-7.35;100.00
68594;BME280;55563;52.416;13.548;2024-01-11T04:09:43;102634.09;;;-7.34;100.00
68594;BME280;55563;52.416;13.548;2024-01-11T04:11:44;102629.78;;;-7.33;100.00
68594;BME280;55563;52.416;13.548;2024-01-11T04:13:45;102629.69;;;-7.32;100.00
68594;BME280;55563;52.416;13.548;2024-01-11T04:15:45;102628.50;;;-7.26;100.00
68594;BME280;55563;52.416;13.548;2024-01-11T04:17:46;102622.31;;;-7.22;100.00
68594;BME280;55563;52.416;13.548;2024-01-11T04:19:47;102626.31;;;-7.18;100.00
68594;BME280;55563;52.416;13.548;2024-01-11T04:21:47;102636.22;;;-7.14;100.00
68594;BME280;55563;52.416;13.548;2024-01-11T04:23:48;102630.97;;;-7.11;100.00
68594;BME280;55563;52.416;13.548;2024-01-11T04:25:49;102615.50;;;-7.09;100.00
68594;BME280;55563;52.416;13.548;2024-01-11T04:27:51;102601.66;;;-7.05;100.00
68594;BME280;55563;52.416;13.548;2024-01-11T04:29:52;102622.88;;;-7.05;100.00
68594;BME280;55563;52.416;13.548;2024-01-11T04:31:53;102650.72;;;-7.00;100.00
68594;BME280;55563;52.416;13.548;2024-01-11T04:33:53;102643.69;;;-6.96;100.00
68594;BME280;55563;52.416;13.548;2024-01-11T04:35:54;102657.19;;;-6.94;100.00
68594;BME280;55563;52.416;13.548;2024-01-11T04:37:54;102650.16;;;-6.91;100.00
68594;BME280;55563;52.416;13.548;2024-01-11T04:39:55;102640.03;;;-6.92;100.00
68594;BME280;55563;52.416;13.548;2024-01-11T04:42:00;102640.84;;;-6.92;100.00
68594;BME280;55563;52.416;13.548;2024-01-11T04:44:02;102647.22;;;-6.85;100.00
68594;BME280;55563;52.416;13.548;2024-01-11T04:46:03;102642.22;;;-6.86;100.00
68594;BME280;55563;52.416;13.548;2024-01-11T04:48:04;102647.22;;;-6.85;100.00
68594;BME280;55563;52.416;13.548;2024-01-11T04:50:05;102646.63;;;-6.76;100.00
68594;BME280;55563;52.416;13.548;2024-01-11T04:52:06;102646.75;;;-6.77;100.00
68594;BME280;55563;52.416;13.548;2024-01-11T04:54:08;102642.34;;;-6.75;100.00
68594;BME280;55563;52.416;13.548;2024-01-11T04:56:11;102637.97;;;-6.73;100.00
68594;BME280;55563;52.416;13.548;2024-01-11T04:58:11;102614.97;;;-6.73;100.00
68594;BME280;55563;52.416;13.548;2024-01-11T05:00:12;102613.00;;;-6.70;100.00
68594;BME280;55563;52.416;13.548;2024-01-11T05:02:13;102619.69;;;-6.67;100.00
68594;BME280;55563;52.416;13.548;2024-01-11T05:04:14;102607.59;;;-6.65;100.00
68594;BME280;55563;52.416;13.548;2024-01-11T05:06:16;102599.03;;;-6.64;100.00
68594;BME280;55563;52.416;13.548;2024-01-11T05:08:17;102583.38;;;-6.59;100.00
68594;BME280;55563;52.416;13.548;2024-01-11T05:10:17;102597.72;;;-6.57;100.00
68594;BME280;55563;52.416;13.548;2024-01-11T05:12:18;102600.16;;;-6.55;100.00
68594;BME280;55563;52.416;13.548;2024-01-11T05:14:18;102580.31;;;-6.52;100.00
68594;BME280;55563;52.416;13.548;2024-01-11T05:16:23;102579.94;;;-6.46;100.00
68594;BME280;55563;52.416;13.548;2024-01-11T05:18:24;102601.94;;;-6.43;100.00
68594;BME280;55563;52.416;13.548;2024-01-11T05:20:24;102619.84;;;-6.43;100.00
68594;BME280;55563;52.416;13.548;2024-01-11T05:22:25;102621.38;;;-6.41;100.00
68594;BME280;55563;52.416;13.548;2024-01-11T05:24:26;102618.81;;;-6.41;100.00
68594;BME280;55563;52.416;13.548;2024-01-11T05:26:27;102615.34;;;-6.40;100.00
68594;BME280;55563;52.416;13.548;2024-01-11T05:28:27;102598.06;;;-6.36;100.00
68594;BME280;55563;52.416;13.548;2024-01-11T05:30:28;102609.13;;;-6.36;100.00
68594;BME280;55563;52.416;13.548;2024-01-11T05:32:29;102619.13;;;-6.33;100.00
68594;BME280;55563;52.416;13.548;2024-01-11T05:34:29;102624.97;;;-6.31;100.00
68594;BME280;55563;52.416;13.548;2024-01-11T05:36:30;102617.22;;;-6.29;100.00
68594;BME280;55563;52.416;13.548;2024-01-11T05:38:31;102625.72;;;-6.29;100.00
68594;BME280;55563;52.416;13.548;2024-01-11T05:40:32;102611.06;;;-6.27;100.00
68594;BME280;55563;52.416;13.548;2024-01-11T05:42:33;102609.34;;;-6.26;100.00
68594;BME280;55563;52.416;13.548;2024-01-11T05:44:33;102596.53;;;-6.26;100.00
68594;BME280;55563;52.416;13.548;2024-01-11T05:46:34;102592.03;;;-6.23;100.00
68594;BME280;55563;52.416;13.548;2024-01-11T05:48:34;102591.03;;;-6.20;100.00
68594;BME280;55563;52.416;13.548;2024-01-11T05:50:35;102588.97;;;-6.15;100.00
68594;BME280;55563;52.416;13.548;2024-01-11T05:52:36;102588.16;;;-6.15;100.00
68594;BME280;55563;52.416;13.548;2024-01-11T05:54:36;102587.94;;;-6.12;100.00
68594;BME280;55563;52.416;13.548;2024-01-11T05:56:37;102583.44;;;-6.09;100.00
68594;BME280;55563;52.416;13.548;2024-01-11T05:58:39;102584.06;;;-6.05;100.00
68594;BME280;55563;52.416;13.548;2024-01-11T06:00:40;102583.94;;;-6.04;100.00
68594;BME280;55563;52.416;13.548;2024-01-11T06:02:42;102591.44;;;-6.01;100.00
68594;BME280;55563;52.416;13.548;2024-01-11T06:04:42;102607.63;;;-6.00;100.00
68594;BME280;55563;52.416;13.548;2024-01-11T06:06:43;102609.97;;;-5.97;100.00
68594;BME280;55563;52.416;13.548;2024-01-11T06:08:44;102604.63;;;-5.94;100.00
68594;BME280;55563;52.416;13.548;2024-01-11T06:10:44;102613.56;;;-5.87;100.00
68594;BME280;55563;52.416;13.548;2024-01-11T06:12:45;102620.06;;;-5.83;100.00
68594;BME280;55563;52.416;13.548;2024-01-11T06:14:46;102624.38;;;-5.84;100.00
68594;BME280;55563;52.416;13.548;2024-01-11T06:16:47;102604.50;;;-5.80;100.00
68594;BME280;55563;52.416;13.548;2024-01-11T06:18:48;102589.03;;;-5.79;100.00
68594;BME280;55563;52.416;13.548;2024-01-11T06:20:48;102595.59;;;-5.75;100.00
68594;BME280;55563;52.416;13.548;2024-01-11T06:22:49;102587.81;;;-5.73;100.00
68594;BME280;55563;52.416;13.548;2024-01-11T06:24:49;102595.41;;;-5.72;100.00
68594;BME280;55563;52.416;13.548;2024-01-11T06:26:50;102590.88;;;-5.68;100.00
68594;BME280;55563;52.416;13.548;2024-01-11T06:28:51;102588.91;;;-5.64;100.00
68594;BME280;55563;52.416;13.548;2024-01-11T06:30:51;102582.78;;;-5.62;100.00
68594;BME280;55563;52.416;13.548;2024-01-11T06:32:53;102595.97;;;-5.55;100.00
68594;BME280;55563;52.416;13.548;2024-01-11T06:34:54;102593.31;;;-5.54;100.00
68594;BME280;55563;52.416;13.548;2024-01-11T06:36:55;102594.94;;;-5.53;100.00
68594;BME280;55563;52.416;13.548;2024-01-11T06:38:55;102591.16;;;-5.47;100.00
68594;BME280;55563;52.416;13.548;2024-01-11T06:40:56;102597.78;;;-5.45;100.00
68594;BME280;55563;52.416;13.548;2024-01-11T06:42:57;102600.25;;;-5.43;100.00
68594;BME280;55563;52.416;13.548;2024-01-11T06:44:58;102591.53;;;-5.41;100.00
68594;BME280;55563;52.416;13.548;2024-01-11T06:46:58;102579.53;;;-5.40;100.00
68594;BME280;55563;52.416;13.548;2024-01-11T06:49:00;102578.41;;;-5.36;100.00
68594;BME280;55563;52.416;13.548;2024-01-11T06:51:00;102572.25;;;-5.34;100.00
68594;BME280;55563;52.416;13.548;2024-01-11T06:53:01;102571.22;;;-5.31;100.00
68594;BME280;55563;52.416;13.548;2024-01-11T06:55:02;102572.75;;;-5.29;100.00
68594;BME280;55563;52.416;13.548;2024-01-11T06:57:04;102580.31;;;-5.27;100.00
68594;BME280;55563;52.416;13.548;2024-01-11T06:59:04;102569.88;;;-5.24;100.00
68594;BME280;55563;52.416;13.548;2024-01-11T07:01:05;102575.00;;;-5.24;100.00
68594;BME280;55563;52.416;13.548;2024-01-11T07:03:06;102568.81;;;-5.21;100.00
68594;BME280;55563;52.416;13.548;2024-01-11T07:05:07;102563.59;;;-5.20;100.00
68594;BME280;55563;52.416;13.548;2024-01-11T07:07:08;102571.78;;;-5.15;100.00
68594;BME280;55563;52.416;13.548;2024-01-11T07:09:08;102568.31;;;-5.14;100.00
68594;BME280;55563;52.416;13.548;2024-01-11T07:11:11;102554.66;;;-5.14;100.00
68594;BME280;55563;52.416;13.548;2024-01-11T07:13:11;102553.63;;;-5.12;100.00
68594;BME280;55563;52.416;13.548;2024-01-11T07:15:15;102557.00;;;-5.11;100.00
68594;BME280;55563;52.416;13.548;2024-01-11T07:17:16;102566.44;;;-5.12;100.00
68594;BME280;55563;52.416;13.548;2024-01-11T07:19:16;102566.34;;;-5.10;100.00
68594;BME280;55563;52.416;13.548;2024-01-11T07:21:25;102574.03;;;-5.10;100.00
68594;BME280;55563;52.416;13.548;2024-01-11T07:23:29;102571.22;;;-5.07;100.00
68594;BME280;55563;52.416;13.548;2024-01-11T07:25:30;102571.94;;;-5.05;100.00
68594;BME280;55563;52.416;13.548;2024-01-11T07:27:31;102559.94;;;-5.05;100.00
68594;BME280;55563;52.416;13.548;2024-01-11T07:29:33;102569.16;;;-5.02;100.00
68594;BME280;55563;52.416;13.548;2024-01-11T07:31:33;102556.25;;;-5.01;100.00
68594;BME280;55563;52.416;13.548;2024-01-11T07:33:34;102542.84;;;-4.93;100.00
68594;BME280;55563;52.416;13.548;2024-01-11T07:35:35;102548.81;;;-4.93;100.00
68594;BME280;55563;52.416;13.548;2024-01-11T07:37:37;102560.38;;;-4.87;100.00
68594;BME280;55563;52.416;13.548;2024-01-11T07:39:37;102566.09;;;-4.84;100.00
68594;BME280;55563;52.416;13.548;2024-01-11T07:41:38;102577.31;;;-4.85;100.00
68594;BME280;55563;52.416;13.548;2024-01-11T07:43:41;102578.72;;;-4.80;100.00
68594;BME280;55563;52.416;13.548;2024-01-11T07:45:41;102574.06;;;-4.75;100.00
68594;BME280;55563;52.416;13.548;2024-01-11T07:47:42;102568.81;;;-4.74;100.00
68594;BME280;55563;52.416;13.548;2024-01-11T07:49:42;102565.66;;;-4.77;100.00
68594;BME280;55563;52.416;13.548;2024-01-11T07:51:43;102576.50;;;-4.74;100.00
68594;BME280;55563;52.416;13.548;2024-01-11T07:53:44;102573.75;;;-4.71;100.00
68594;BME280;55563;52.416;13.548;2024-01-11T07:55:44;102575.97;;;-4.66;100.00
68594;BME280;55563;52.416;13.548;2024-01-11T07:57:48;102582.50;;;-4.62;100.00
68594;BME280;55563;52.416;13.548;2024-01-11T07:59:48;102571.81;;;-4.56;100.00
68594;BME280;55563;52.416;13.548;2024-01-11T08:01:49;102552.09;;;-4.56;100.00
68594;BME280;55563;52.416;13.548;2024-01-11T08:03:50;102562.13;;;-4.53;100.00
68594;BME280;55563;52.416;13.548;2024-01-11T08:05:52;102554.19;;;-4.50;100.00
68594;BME280;55563;52.416;13.548;2024-01-11T08:07:52;102553.84;;;-4.45;100.00
68594;BME280;55563;52.416;13.548;2024-01-11T08:09:54;102553.16;;;-4.36;100.00
68594;BME280;55563;52.416;13.548;2024-01-11T08:11:54;102566.47;;;-4.31;100.00
68594;BME280;55563;52.416;13.548;2024-01-11T08:13:55;102559.50;;;-4.29;100.00
68594;BME280;55563;52.416;13.548;2024-01-11T08:15:55;102562.78;;;-4.27;100.00
68594;BME280;55563;52.416;13.548;2024-01-11T08:17:57;102548.88;;;-4.24;100.00
68594;BME280;55563;52.416;13.548;2024-01-11T08:19:58;102564.03;;;-4.21;100.00
68594;BME280;55563;52.416;13.548;2024-01-11T08:21:59;102553.91;;;-4.23;100.00
68594;BME280;55563;52.416;13.548;2024-01-11T08:23:59;102562.31;;;-4.21;100.00
68594;BME280;55563;52.416;13.548;2024-01-11T08:26:00;102562.91;;;-4.17;100.00
68594;BME280;55563;52.416;13.548;2024-01-11T08:28:01;102563.34;;;-4.12;100.00
68594;BME280;55563;52.416;13.548;2024-01-11T08:30:03;102558.13;;;-4.11;100.00
68594;BME280;55563;52.416;13.548;2024-01-11T08:32:05;102553.81;;;-4.10;100.00
68594;BME280;55563;52.416;13.548;2024-01-11T08:34:05;102564.66;;;-4.07;100.00
68594;BME280;55563;52.416;13.548;2024-01-11T08:36:06;102557.66;;;-4.05;100.00
68594;BME280;55563;52.416;13.548;2024-01-11T08:38:07;102566.88;;;-4.02;100.00
68594;BME280;55563;52.416;13.548;2024-01-11T08:40:08;102572.72;;;-4.00;100.00
68594;BME280;55563;52.416;13.548;2024-01-11T08:42:09;102562.09;;;-3.96;100.00
68594;BME280;55563;52.416;13.548;2024-01-11T08:44:10;102561.84;;;-3.92;100.00
68594;BME280;55563;52.416;13.548;2024-01-11T08:46:11;102549.47;;;-3.87;100.00
68594;BME280;55563;52.416;13.548;2024-01-11T08:48:11;102555.34;;;-3.85;100.00
68594;BME280;55563;52.416;13.548;2024-01-11T08:50:13;102559.41;;;-3.83;100.00
68594;BME280;55563;52.416;13.548;2024-01-11T08:52:13;102553.22;;;-3.80;100.00
68594;BME280;55563;52.416;13.548;2024-01-11T08:54:14;102548.66;;;-3.77;100.00
68594;BME280;55563;52.416;13.548;2024-01-11T08:56:16;102561.97;;;-3.72;100.00
68594;BME280;55563;52.416;13.548;2024-01-11T08:58:17;102540.50;;;-3.71;100.00
68594;BME280;55563;52.416;13.548;2024-01-11T09:00:18;102551.91;;;-3.64;100.00
68594;BME280;55563;52.416;13.548;2024-01-11T09:02:19;102549.59;;;-3.67;100.00
68594;BME280;55563;52.416;13.548;2024-01-11T09:04:19;102545.59;;;-3.60;100.00
68594;BME280;55563;52.416;13.548;2024-01-11T09:06:20;102533.72;;;-3.61;100.00
68594;BME280;55563;52.416;13.548;2024-01-11T09:08:20;102528.22;;;-3.56;100.00
68594;BME280;55563;52.416;13.548;2024-01-11T09:10:21;102528.91;;;-3.54;100.00
68594;BME280;55563;52.416;13.548;2024-01-11T09:12:21;102512.28;;;-3.50;100.00
68594;BME280;55563;52.416;13.548;2024-01-11T09:14:22;102506.56;;;-3.42;100.00
68594;BME280;55563;52.416;13.548;2024-01-11T09:16:23;102506.31;;;-3.39;100.00
68594;BME280;55563;52.416;13.548;2024-01-11T09:18:25;102522.34;;;-3.36;100.00
68594;BME280;55563;52.416;13.548;2024-01-11T09:20:26;102528.28;;;-3.35;100.00
68594;BME280;55563;52.416;13.548;2024-01-11T09:22:26;102516.13;;;-3.33;100.00
68594;BME280;55563;52.416;13.548;2024-01-11T09:24:28;102514.81;;;-3.28;100.00
68594;BME280;55563;52.416;13.548;2024-01-11T09:26:28;102504.66;;;-3.29;100.00
68594;BME280;55563;52.416;13.548;2024-01-11T09:28:29;102512.25;;;-3.28;100.00
68594;BME280;55563;52.416;13.548;2024-01-11T09:30:30;102518.78;;;-3.24;100.00
68594;BME280;55563;52.416;13.548;2024-01-11T09:32:30;102530.56;;;-3.21;100.00
68594;BME280;55563;52.416;13.548;2024-01-11T09:34:31;102518.41;;;-3.19;100.00
68594;BME280;55563;52.416;13.548;2024-01-11T09:36:32;102528.34;;;-3.15;100.00
68594;BME280;55563;52.416;13.548;2024-01-11T09:38:33;102534.19;;;-3.13;100.00
68594;BME280;55563;52.416;13.548;2024-01-11T09:40:34;102534.88;;;-3.11;100.00
68594;BME280;55563;52.416;13.548;2024-01-11T09:42:34;102539.63;;;-3.06;100.00
68594;BME280;55563;52.416;13.548;2024-01-11T09:44:36;102517.09;;;-3.02;100.00
68594;BME280;55563;52.416;13.548;2024-01-11T09:46:40;102523.72;;;-3.00;100.00
68594;BME280;55563;52.416;13.548;2024-01-11T09:48:42;102518.31;;;-2.97;100.00
68594;BME280;55563;52.416;13.548;2024-01-11T09:50:48;102528.56;;;-2.86;100.00
68594;BME280;55563;52.416;13.548;2024-01-11T09:52:49;102528.69;;;-2.87;100.00
68594;BME280;55563;52.416;13.548;2024-01-11T09:54:50;102531.13;;;-2.86;100.00
68594;BME280;55563;52.416;13.548;2024-01-11T09:56:51;102531.41;;;-2.89;100.00
68594;BME280;55563;52.416;13.548;2024-01-11T09:58:52;102541.44;;;-2.86;100.00
68594;BME280;55563;52.416;13.548;2024-01-11T10:00:54;102548.78;;;-2.81;100.00
68594;BME280;55563;52.416;13.548;2024-01-11T10:02:55;102541.63;;;-2.78;100.00
68594;BME280;55563;52.416;13.548;2024-01-11T10:04:56;102553.56;;;-2.77;100.00
68594;BME280;55563;52.416;13.548;2024-01-11T10:06:57;102548.19;;;-2.74;100.00
68594;BME280;55563;52.416;13.548;2024-01-11T10:08:58;102548.19;;;-2.74;100.00
68594;BME280;55563;52.416;13.548;2024-01-11T10:10:58;102545.78;;;-2.66;100.00
68594;BME280;55563;52.416;13.548;2024-01-11T10:12:59;102544.97;;;-2.66;100.00
68594;BME280;55563;52.416;13.548;2024-01-11T10:15:09;102534.94;;;-2.69;100.00
68594;BME280;55563;52.416;13.548;2024-01-11T10:17:10;102528.66;;;-2.55;100.00
68594;BME280;55563;52.416;13.548;2024-01-11T10:19:10;102520.00;;;-2.54;100.00
68594;BME280;55563;52.416;13.548;2024-01-11T10:21:14;102505.34;;;-2.33;100.00
68594;BME280;55563;52.416;13.548;2024-01-11T10:23:14;102509.28;;;-2.29;100.00
68594;BME280;55563;52.416;13.548;2024-01-11T10:25:16;102504.00;;;-2.28;100.00
68594;BME280;55563;52.416;13.548;2024-01-11T10:27:18;102512.56;;;-2.27;100.00